createdAt,value
2022-09-26T00:01:36.557Z,99.90
2022-09-26T00:04:12.702Z,99.90
2022-09-26T00:06:40.173Z,99.90
2022-09-26T00:09:07.589Z,99.90
2022-09-26T00:11:35.256Z,99.90
2022-09-26T00:14:06.426Z,99.90
2022-09-26T00:16:33.770Z,99.90
2022-09-26T00:19:01.872Z,99.90
2022-09-26T00:21:30.498Z,99.90
2022-09-26T00:24:00.455Z,99.90
2022-09-26T00:26:29.789Z,99.90
2022-09-26T00:28:57.984Z,99.90
2022-09-26T00:31:28.687Z,99.90
2022-09-26T00:33:57.009Z,99.90
2022-09-26T00:36:36.955Z,99.90
2022-09-26T00:39:07.157Z,99.90
2022-09-26T00:41:35.466Z,99.90
2022-09-26T00:44:03.395Z,99.90
2022-09-26T00:46:43.879Z,99.90
2022-09-26T00:49:40.293Z,99.90
2022-09-26T00:52:21.076Z,99.90
2022-09-26T00:54:52.352Z,99.90
2022-09-26T00:57:26.597Z,99.90
2022-09-26T01:00:00.888Z,99.90
2022-09-26T01:02:29.069Z,99.90
2022-09-26T01:04:59.489Z,99.90
2022-09-26T01:07:28.412Z,99.90
2022-09-26T01:09:57.653Z,99.90
2022-09-26T01:12:25.236Z,99.90
2022-09-26T01:14:54.133Z,99.90
2022-09-26T01:17:23.233Z,99.90
2022-09-26T01:20:23.252Z,99.90
2022-09-26T01:23:09.937Z,99.90
2022-09-26T01:25:56.144Z,99.90
2022-09-26T01:28:57.112Z,99.90
2022-09-26T01:31:36.631Z,99.90
2022-09-26T01:34:15.447Z,99.90
2022-09-26T01:36:48.548Z,99.90
2022-09-26T01:39:37.370Z,99.90
2022-09-26T01:42:18.240Z,99.90
2022-09-26T01:45:00.276Z,99.90
2022-09-26T01:47:47.055Z,99.90
2022-09-26T01:50:17.416Z,99.90
2022-09-26T01:53:10.290Z,99.90
2022-09-26T01:55:53.518Z,99.90
2022-09-26T01:58:42.740Z,99.90
2022-09-26T02:01:13.913Z,99.90
2022-09-26T02:03:49.194Z,99.90
2022-09-26T02:06:31.683Z,99.90
2022-09-26T02:09:11.901Z,99.90
2022-09-26T02:11:43.952Z,99.90
2022-09-26T02:14:17.244Z,99.90
2022-09-26T02:16:49.261Z,99.90
2022-09-26T02:19:48.073Z,99.90
2022-09-26T02:22:15.834Z,99.90
2022-09-26T02:24:43.309Z,99.90
2022-09-26T02:27:10.707Z,99.90
2022-09-26T02:29:39.126Z,99.90
2022-09-26T02:32:16.077Z,99.90
2022-09-26T02:34:46.911Z,99.90
2022-09-26T02:37:16.837Z,99.90
2022-09-26T02:39:46.676Z,99.90
2022-09-26T02:42:17.139Z,99.90
2022-09-26T02:44:50.323Z,99.90
2022-09-26T02:47:35.742Z,99.90
2022-09-26T02:50:15.114Z,99.90
2022-09-26T02:52:51.323Z,99.90
2022-09-26T02:55:24.542Z,99.90
2022-09-26T02:58:13.915Z,99.90
2022-09-26T03:00:49.009Z,99.90
2022-09-26T03:03:26.597Z,99.90
2022-09-26T03:05:57.822Z,99.90
2022-09-26T03:08:29.063Z,99.90
2022-09-26T03:11:00.482Z,99.90
2022-09-26T03:13:29.796Z,99.90
2022-09-26T03:15:59.727Z,99.90
2022-09-26T03:18:34.295Z,99.90
2022-09-26T03:21:01.763Z,99.90
2022-09-26T03:23:29.601Z,99.90
2022-09-26T03:26:17.518Z,99.90
2022-09-26T03:28:44.956Z,99.90
2022-09-26T03:31:12.560Z,99.90
2022-09-26T03:33:40.547Z,99.90
2022-09-26T03:36:09.648Z,99.90
2022-09-26T03:38:36.977Z,99.90
2022-09-26T03:41:04.584Z,99.90
2022-09-26T03:43:32.128Z,99.90
2022-09-26T03:46:07.044Z,99.90
2022-09-26T03:48:34.789Z,99.90
2022-09-26T03:51:03.737Z,99.90
2022-09-26T03:53:35.855Z,99.90
2022-09-26T03:56:08.927Z,99.90
2022-09-26T03:58:36.844Z,99.90
2022-09-26T04:01:08.301Z,99.90
2022-09-26T04:03:40.635Z,99.90
2022-09-26T04:06:09.683Z,99.90
2022-09-26T04:08:39.197Z,99.90
2022-09-26T04:11:16.450Z,99.90
2022-09-26T04:13:51.885Z,99.90
2022-09-26T04:16:22.852Z,99.90
2022-09-26T04:18:56.926Z,99.90
2022-09-26T04:21:27.303Z,99.90
2022-09-26T04:23:55.314Z,99.90
2022-09-26T04:26:24.222Z,99.90
2022-09-26T04:28:54.996Z,99.90
2022-09-26T04:31:24.501Z,99.90
2022-09-26T04:33:52.112Z,99.90
2022-09-26T04:36:19.488Z,99.90
2022-09-26T04:38:47.144Z,99.90
2022-09-26T04:41:20.123Z,99.90
2022-09-26T04:43:47.842Z,99.90
2022-09-26T04:46:21.246Z,99.90
2022-09-26T04:48:55.373Z,99.90
2022-09-26T04:51:25.308Z,99.90
2022-09-26T04:53:52.854Z,99.90
2022-09-26T04:56:22.142Z,99.90
2022-09-26T04:58:50.021Z,99.90
2022-09-26T05:01:19.943Z,99.90
2022-09-26T05:03:47.466Z,99.90
2022-09-26T05:06:17.658Z,99.90
2022-09-26T05:08:49.343Z,99.90
2022-09-26T05:11:18.548Z,99.90
2022-09-26T05:13:49.069Z,99.90
2022-09-26T05:16:19.922Z,99.90
2022-09-26T05:18:52.026Z,99.90
2022-09-26T05:21:19.828Z,99.90
2022-09-26T05:24:07.457Z,99.90
2022-09-26T05:26:44.406Z,99.90
2022-09-26T05:29:12.307Z,99.90
2022-09-26T05:31:40.145Z,99.90
2022-09-26T05:34:16.826Z,99.90
2022-09-26T05:36:47.048Z,99.90
2022-09-26T05:39:32.617Z,99.90
2022-09-26T05:42:00.175Z,99.90
2022-09-26T05:44:28.404Z,99.90
2022-09-26T05:46:57.541Z,99.90
2022-09-26T05:49:25.880Z,99.90
2022-09-26T05:51:53.900Z,99.90
2022-09-26T05:54:21.364Z,99.90
2022-09-26T05:56:48.748Z,99.90
2022-09-26T05:59:16.279Z,99.90
2022-09-26T06:01:44.018Z,99.90
2022-09-26T06:04:11.504Z,99.90
2022-09-26T06:06:38.931Z,99.90
2022-09-26T06:09:07.545Z,99.90
2022-09-26T06:11:34.903Z,99.90
2022-09-26T06:14:02.933Z,99.90
2022-09-26T06:16:30.498Z,99.90
2022-09-26T06:18:58.797Z,99.90
2022-09-26T06:21:26.134Z,99.90
2022-09-26T06:23:53.476Z,99.90
2022-09-26T06:26:27.135Z,99.90
2022-09-26T06:29:00.376Z,99.90
2022-09-26T06:31:35.753Z,99.90
2022-09-26T06:34:03.251Z,99.90
2022-09-26T06:36:31.630Z,99.90
2022-09-26T06:38:58.997Z,99.90
2022-09-26T06:41:26.607Z,99.90
2022-09-26T06:43:53.982Z,99.90
2022-09-26T06:46:21.792Z,99.90
2022-09-26T06:48:49.161Z,99.90
2022-09-26T06:51:17.980Z,99.90
2022-09-26T06:53:46.057Z,99.90
2022-09-26T06:56:13.520Z,99.90
2022-09-26T06:58:41.888Z,99.90
2022-09-26T07:01:09.598Z,99.90
2022-09-26T07:03:40.486Z,99.90
2022-09-26T07:06:10.430Z,99.90
2022-09-26T07:09:00.984Z,99.90
2022-09-26T07:14:17.303Z,99.90
2022-09-26T07:16:45.416Z,99.90
2022-09-26T07:19:13.174Z,99.90
2022-09-26T07:21:40.823Z,99.90
2022-09-26T07:24:08.780Z,99.90
2022-09-26T07:26:36.228Z,99.90
2022-09-26T07:29:03.672Z,99.90
2022-09-26T07:31:31.257Z,99.90
2022-09-26T07:33:58.666Z,99.90
2022-09-26T07:36:25.999Z,99.90
2022-09-26T07:38:53.658Z,99.90
2022-09-26T07:41:21.109Z,99.90
2022-09-26T07:46:54.416Z,99.90
2022-09-26T07:49:40.277Z,99.90
2022-09-26T07:52:07.911Z,99.90
2022-09-26T07:54:35.778Z,99.90
2022-09-26T07:57:04.982Z,99.90
2022-09-26T07:59:35.890Z,99.90
2022-09-26T08:02:04.180Z,99.90
2022-09-26T08:04:31.690Z,99.90
2022-09-26T08:06:59.572Z,99.90
2022-09-26T08:09:26.951Z,99.90
2022-09-26T08:11:55.937Z,99.90
2022-09-26T08:14:23.292Z,99.90
2022-09-26T08:16:55.527Z,99.90
2022-09-26T08:19:23.137Z,99.90
2022-09-26T08:21:50.596Z,99.90
2022-09-26T08:24:17.999Z,99.90
2022-09-26T08:26:45.417Z,99.90
2022-09-26T08:29:13.164Z,99.90
2022-09-26T08:31:40.631Z,99.90
2022-09-26T08:34:08.814Z,99.90
2022-09-26T08:36:37.175Z,99.90
2022-09-26T08:39:05.632Z,99.90
2022-09-26T08:41:58.787Z,99.90
2022-09-26T08:44:56.021Z,99.90
2022-09-26T08:47:43.302Z,99.90
2022-09-26T08:50:42.872Z,95.50
2022-09-26T08:53:35.724Z,99.90
2022-09-26T08:56:08.058Z,99.90
2022-09-26T08:58:44.404Z,99.90
2022-09-26T09:01:19.582Z,99.90
2022-09-26T09:04:07.001Z,99.90
2022-09-26T09:06:35.183Z,99.90
2022-09-26T09:09:02.677Z,99.90
2022-09-26T09:11:36.016Z,1.00
2022-09-26T09:14:21.239Z,99.90
2022-09-26T09:17:14.123Z,99.90
2022-09-26T09:19:55.986Z,1.00
2022-09-26T09:22:32.575Z,1.00
2022-09-26T09:25:19.447Z,99.90
2022-09-26T09:28:08.306Z,99.90
2022-09-26T09:31:01.256Z,99.90
2022-09-26T09:33:45.663Z,99.90
2022-09-26T09:36:18.610Z,1.00
2022-09-26T09:38:48.737Z,99.90
2022-09-26T09:41:51.503Z,20.10
2022-09-26T09:44:46.704Z,1.00
2022-09-26T09:47:16.603Z,1.00
2022-09-26T09:49:46.821Z,99.90
2022-09-26T09:52:28.985Z,99.90
2022-09-26T09:55:14.966Z,99.90
2022-09-26T09:57:57.129Z,1.00
2022-09-26T10:00:27.779Z,1.00
2022-09-26T10:03:19.467Z,1.00
2022-09-26T10:05:51.823Z,99.90
2022-09-26T10:08:41.760Z,1.00
2022-09-26T10:11:27.993Z,1.00
2022-09-26T10:14:01.309Z,1.00
2022-09-26T10:16:30.678Z,1.00
2022-09-26T10:19:05.786Z,1.00
2022-09-26T10:21:40.701Z,1.00
2022-09-26T10:24:24.145Z,1.00
2022-09-26T10:26:51.674Z,99.90
2022-09-26T10:29:35.441Z,99.90
2022-09-26T10:32:05.881Z,99.90
2022-09-26T10:34:38.452Z,99.90
2022-09-26T10:37:29.483Z,99.90
2022-09-26T10:40:17.518Z,99.90
2022-09-26T10:42:52.611Z,58.90
2022-09-26T10:45:30.334Z,1.00
2022-09-26T10:47:59.932Z,31.80
2022-09-26T10:50:31.479Z,26.80
2022-09-26T10:53:09.171Z,1.00
2022-09-26T10:55:43.335Z,1.00
2022-09-26T10:58:22.820Z,1.00
2022-09-26T11:00:52.031Z,1.00
2022-09-26T11:03:33.222Z,1.00
2022-09-26T11:06:01.239Z,1.00
2022-09-26T11:08:37.594Z,99.90
2022-09-26T11:11:11.404Z,99.90
2022-09-26T11:13:48.246Z,99.90
2022-09-26T11:16:19.271Z,99.90
2022-09-26T11:19:07.946Z,99.90
2022-09-26T11:21:44.219Z,99.90
2022-09-26T11:24:25.732Z,99.90
2022-09-26T11:27:31.558Z,99.90
2022-09-26T11:30:12.072Z,99.90
2022-09-26T11:32:43.305Z,99.90
2022-09-26T11:35:14.768Z,99.90
2022-09-26T11:37:51.048Z,99.90
2022-09-26T11:40:19.623Z,99.90
2022-09-26T11:42:54.975Z,99.90
2022-09-26T11:45:38.749Z,99.90
2022-09-26T11:48:20.803Z,99.90
2022-09-26T11:51:26.863Z,99.90
2022-09-26T11:54:14.650Z,99.90
2022-09-26T11:57:08.746Z,99.90
2022-09-26T11:59:51.019Z,99.90
2022-09-26T12:02:47.412Z,99.90
2022-09-26T12:05:29.872Z,99.90
2022-09-26T12:08:06.266Z,99.90
2022-09-26T12:11:05.433Z,99.90
2022-09-26T12:13:57.258Z,99.90
2022-09-26T12:16:27.765Z,99.90
2022-09-26T12:19:32.266Z,99.90
2022-09-26T12:22:32.451Z,99.90
2022-09-26T12:25:26.856Z,99.90
2022-09-26T12:28:38.987Z,99.90
2022-09-26T12:31:27.727Z,99.90
2022-09-26T12:34:19.472Z,99.90
2022-09-26T12:37:17.900Z,1.00
2022-09-26T12:39:55.438Z,1.00
2022-09-26T12:42:25.604Z,1.00
2022-09-26T12:45:05.530Z,1.00
2022-09-26T12:47:38.573Z,1.00
2022-09-26T12:50:29.439Z,1.00
2022-09-26T12:53:54.105Z,1.00
2022-09-26T12:56:40.244Z,1.00
2022-09-26T12:59:39.665Z,1.00
2022-09-26T13:02:12.686Z,1.00
2022-09-26T13:04:48.374Z,1.00
2022-09-26T13:07:38.715Z,1.00
2022-09-26T13:10:17.174Z,1.00
2022-09-26T13:13:05.461Z,59.70
2022-09-26T13:15:49.698Z,71.30
2022-09-26T13:18:26.696Z,49.20
2022-09-26T13:21:03.181Z,38.70
2022-09-26T13:23:38.367Z,99.90
2022-09-26T13:26:14.711Z,99.90
2022-09-26T13:29:15.830Z,99.90
2022-09-26T13:32:11.302Z,99.90
2022-09-26T13:34:51.393Z,99.90
2022-09-26T13:37:46.071Z,1.00
2022-09-26T13:40:33.170Z,1.00
2022-09-26T13:43:04.161Z,1.00
2022-09-26T13:45:56.189Z,61.10
2022-09-26T13:48:37.191Z,99.90
2022-09-26T13:51:28.339Z,99.90
2022-09-26T13:54:08.056Z,99.90
2022-09-26T13:56:36.216Z,99.90
2022-09-26T13:59:12.181Z,1.00
2022-09-26T14:02:00.235Z,99.90
2022-09-26T14:04:36.964Z,1.00
2022-09-26T14:07:28.746Z,99.90
2022-09-26T14:10:10.373Z,99.90
2022-09-26T14:13:06.684Z,11.30
2022-09-26T14:15:49.443Z,99.50
2022-09-26T14:18:44.952Z,1.00
2022-09-26T14:21:23.281Z,99.90
2022-09-26T14:24:11.355Z,1.00
2022-09-26T14:26:43.950Z,99.90
2022-09-26T14:29:29.712Z,99.90
2022-09-26T14:32:18.707Z,1.00
2022-09-26T14:34:46.039Z,99.90
2022-09-26T14:37:25.353Z,1.00
2022-09-26T14:40:10.322Z,1.00
2022-09-26T14:42:43.797Z,1.00
2022-09-26T14:45:17.020Z,8.00
2022-09-26T14:47:48.636Z,7.60
2022-09-26T14:50:20.571Z,1.00
2022-09-26T14:52:56.744Z,17.70
2022-09-26T14:55:25.484Z,37.50
2022-09-26T14:58:13.062Z,57.70
2022-09-26T15:00:44.421Z,75.00
2022-09-26T15:03:17.977Z,99.90
2022-09-26T15:05:46.299Z,99.90
2022-09-26T15:08:26.641Z,99.90
2022-09-26T15:10:56.631Z,99.90
2022-09-26T15:13:33.262Z,99.90
2022-09-26T15:16:14.790Z,99.90
2022-09-26T15:19:25.977Z,99.90
2022-09-26T15:22:06.362Z,99.90
2022-09-26T15:24:36.900Z,99.90
2022-09-26T15:27:27.350Z,99.90
2022-09-26T15:30:03.935Z,99.90
2022-09-26T15:32:33.557Z,99.90
2022-09-26T15:35:03.300Z,99.90
2022-09-26T15:37:35.557Z,99.90
2022-09-26T15:40:20.750Z,99.90
2022-09-26T15:43:02.584Z,99.90
2022-09-26T15:45:58.485Z,99.90
2022-09-26T15:48:32.734Z,99.90
2022-09-26T15:51:16.228Z,99.90
2022-09-26T15:53:48.507Z,99.90
2022-09-26T15:56:27.977Z,99.90
2022-09-26T15:59:10.147Z,99.90
2022-09-26T16:01:42.533Z,99.90
2022-09-26T16:04:21.016Z,99.90
2022-09-26T16:07:00.761Z,99.90
2022-09-26T16:09:43.517Z,99.90
2022-09-26T16:12:22.856Z,99.90
2022-09-26T16:14:52.004Z,99.90
2022-09-26T16:17:36.613Z,99.90
2022-09-26T16:20:09.920Z,99.90
2022-09-26T16:22:37.478Z,99.90
2022-09-26T16:25:20.367Z,99.90
2022-09-26T16:27:49.576Z,99.90
2022-09-26T16:30:25.894Z,99.90
2022-09-26T16:33:02.493Z,99.90
2022-09-26T16:35:33.671Z,99.90
2022-09-26T16:38:02.215Z,99.90
2022-09-26T16:40:31.502Z,99.90
2022-09-26T16:43:27.387Z,99.90
2022-09-26T16:46:17.655Z,99.90
2022-09-26T16:48:51.361Z,99.90
2022-09-26T16:51:21.370Z,99.90
2022-09-26T16:53:56.042Z,99.90
2022-09-26T16:56:25.314Z,99.90
2022-09-26T16:58:56.646Z,99.90
2022-09-26T17:01:43.082Z,99.90
2022-09-26T17:04:19.087Z,99.90
2022-09-26T17:06:47.486Z,99.90
2022-09-26T17:09:21.306Z,99.90
2022-09-26T17:11:51.483Z,99.90
2022-09-26T17:14:23.997Z,99.90
2022-09-26T17:16:55.375Z,99.90
2022-09-26T17:19:25.622Z,99.90
2022-09-26T17:21:53.285Z,99.90
2022-09-26T17:24:25.584Z,99.90
2022-09-26T17:26:59.021Z,99.90
2022-09-26T17:29:30.470Z,99.90
2022-09-26T17:31:59.681Z,99.90
2022-09-26T17:34:28.513Z,99.90
2022-09-26T17:36:59.361Z,99.90
2022-09-26T17:39:26.846Z,99.90
2022-09-26T17:41:56.292Z,99.90
2022-09-26T17:44:24.038Z,99.90
2022-09-26T17:46:56.437Z,99.90
2022-09-26T17:49:33.492Z,99.90
2022-09-26T17:52:03.364Z,99.90
2022-09-26T17:54:37.778Z,99.90
2022-09-26T17:57:09.877Z,99.90
2022-09-26T17:59:39.453Z,99.90
2022-09-26T18:02:22.665Z,99.90
2022-09-26T18:04:53.435Z,99.90
2022-09-26T18:07:22.532Z,99.90
2022-09-26T18:09:51.565Z,99.90
2022-09-26T18:12:22.718Z,99.90
2022-09-26T18:14:51.197Z,99.90
2022-09-26T18:17:19.029Z,99.90
2022-09-26T18:19:47.125Z,99.90
2022-09-26T18:22:21.786Z,99.90
2022-09-26T18:24:51.730Z,99.90
2022-09-26T18:27:19.142Z,99.90
2022-09-26T18:29:49.468Z,99.90
2022-09-26T18:32:26.083Z,99.90
2022-09-26T18:34:54.518Z,99.90
2022-09-26T18:37:21.973Z,99.90
2022-09-26T18:39:53.734Z,99.90
2022-09-26T18:42:24.453Z,99.90
2022-09-26T18:45:05.724Z,99.90
2022-09-26T18:47:38.057Z,99.90
2022-09-26T18:50:06.708Z,99.90
2022-09-26T18:52:34.888Z,99.90
2022-09-26T18:55:21.004Z,99.90
2022-09-26T18:58:07.026Z,99.90
2022-09-26T19:00:35.529Z,99.90
2022-09-26T19:03:03.821Z,99.90
2022-09-26T19:05:31.301Z,99.90
2022-09-26T19:07:58.902Z,99.90
2022-09-26T19:10:27.153Z,99.90
2022-09-26T19:12:55.564Z,99.90
2022-09-26T19:15:23.097Z,99.90
2022-09-26T19:17:50.786Z,99.90
2022-09-26T19:20:18.164Z,99.90
2022-09-26T19:22:45.554Z,99.90
2022-09-26T19:25:13.280Z,99.90
2022-09-26T19:27:52.213Z,99.90
2022-09-26T19:30:21.591Z,99.90
2022-09-26T19:32:51.985Z,99.90
2022-09-26T19:35:39.332Z,99.90
2022-09-26T19:38:27.047Z,99.90
2022-09-26T19:40:54.787Z,99.90
2022-09-26T19:43:22.727Z,99.90
2022-09-26T19:45:53.787Z,99.90
2022-09-26T19:48:22.165Z,99.90
2022-09-26T19:50:52.576Z,99.90
2022-09-26T19:53:22.607Z,99.90
2022-09-26T19:55:50.606Z,99.90
2022-09-26T19:58:23.594Z,99.90
2022-09-26T20:00:53.376Z,99.90
2022-09-26T20:03:30.179Z,99.90
2022-09-26T20:05:57.991Z,99.90
2022-09-26T20:08:26.763Z,99.90
2022-09-26T20:10:56.031Z,99.90
2022-09-26T20:13:23.442Z,99.90
2022-09-26T20:15:51.044Z,99.90
2022-09-26T20:18:22.004Z,99.90
2022-09-26T20:20:54.580Z,99.90
2022-09-26T20:23:24.985Z,99.90
2022-09-26T20:25:54.251Z,99.90
2022-09-26T20:28:21.881Z,99.90
2022-09-26T20:30:52.383Z,99.90
2022-09-26T20:33:22.477Z,99.90
2022-09-26T20:36:01.773Z,99.90
2022-09-26T20:38:32.236Z,99.90
2022-09-26T20:41:03.559Z,99.90
2022-09-26T20:43:34.487Z,99.90
2022-09-26T20:46:06.799Z,99.90
2022-09-26T20:48:36.188Z,99.90
2022-09-26T20:51:06.185Z,99.90
2022-09-26T20:53:33.582Z,99.90
2022-09-26T20:56:01.169Z,99.90
2022-09-26T20:58:28.650Z,99.90
2022-09-26T21:00:59.470Z,99.90
2022-09-26T21:03:28.330Z,99.90
2022-09-26T21:05:55.853Z,99.90
2022-09-26T21:08:27.255Z,99.90
2022-09-26T21:10:56.201Z,99.90
2022-09-26T21:13:23.916Z,99.90
2022-09-26T21:15:52.565Z,99.90
2022-09-26T21:18:26.280Z,99.90
2022-09-26T21:20:54.690Z,99.90
2022-09-26T21:23:23.404Z,99.90
2022-09-26T21:25:50.833Z,99.90
2022-09-26T21:28:27.539Z,99.90
2022-09-26T21:31:03.109Z,99.90
2022-09-26T21:33:30.791Z,99.90
2022-09-26T21:35:58.362Z,99.90
2022-09-26T21:38:27.136Z,99.90
2022-09-26T21:40:59.789Z,99.90
2022-09-26T21:43:31.898Z,99.90
2022-09-26T21:45:59.465Z,99.90
2022-09-26T21:48:28.031Z,99.90
2022-09-26T21:50:58.745Z,99.90
2022-09-26T21:53:46.853Z,99.90
2022-09-26T21:56:19.323Z,99.90
2022-09-26T21:58:48.259Z,99.90
2022-09-26T22:01:15.798Z,99.90
2022-09-26T22:03:43.255Z,99.90
2022-09-26T22:06:10.774Z,99.90
2022-09-26T22:08:39.473Z,99.90
2022-09-26T22:11:09.136Z,99.90
2022-09-26T22:13:37.817Z,99.90
2022-09-26T22:16:07.436Z,99.90
2022-09-26T22:18:35.957Z,99.90
2022-09-26T22:21:04.888Z,99.90
2022-09-26T22:23:33.614Z,99.90
2022-09-26T22:26:01.831Z,99.90
2022-09-26T22:28:29.526Z,99.90
2022-09-26T22:31:01.925Z,99.90
2022-09-26T22:33:29.775Z,99.90
2022-09-26T22:35:57.590Z,99.90
2022-09-26T22:38:25.285Z,99.90
2022-09-26T22:41:00.692Z,99.90
2022-09-26T22:43:28.904Z,99.90
2022-09-26T22:46:07.712Z,99.90
2022-09-26T22:48:37.032Z,99.90
2022-09-26T22:51:05.004Z,99.90
2022-09-26T22:53:34.989Z,99.90
2022-09-26T22:56:05.419Z,99.90
2022-09-26T22:58:44.946Z,99.90
2022-09-26T23:01:15.641Z,99.90
2022-09-26T23:03:44.281Z,99.90
2022-09-26T23:06:12.262Z,99.90
2022-09-26T23:08:39.746Z,99.90
2022-09-26T23:11:08.319Z,99.90
2022-09-26T23:13:36.326Z,99.90
2022-09-26T23:16:09.582Z,99.90
2022-09-26T23:18:39.450Z,99.90
2022-09-26T23:21:15.153Z,99.90
2022-09-26T23:23:44.459Z,99.90
2022-09-26T23:26:21.698Z,99.90
2022-09-26T23:28:50.295Z,99.90
2022-09-26T23:31:18.169Z,99.90
2022-09-26T23:33:46.142Z,99.90
2022-09-26T23:36:14.018Z,99.90
2022-09-26T23:38:42.182Z,99.90
2022-09-26T23:41:11.530Z,99.90
2022-09-26T23:43:40.019Z,99.90
2022-09-26T23:46:08.113Z,99.90
2022-09-26T23:48:36.397Z,99.90
2022-09-26T23:51:04.409Z,99.90
2022-09-26T23:53:32.467Z,99.90
2022-09-26T23:56:09.060Z,99.90
2022-09-26T23:58:37.501Z,99.90
